Meteo Giornale » Osservazioni meteo Italia » Capo Bellavista

ore: 02:55 - Osservazioni Meteo Capo Bellavista
Lat. 39° 56' N Lon. 9° 43' E Alt. 138 metri s.l.m.

poco_nuvoloso Europe/Rome

12 °C

Poco Nuvoloso

Temp. 24 Ore

12 °C

17 °C

Ovest/Nord-Ovest

14.8 Km/h

Dew point 9 °C

Umidità 81 %

Visibilità  10 Km

Il sole sorge alle ore 07:09

Il sole tramonta alle ore 17:03

Data e Ora Cielo e Fenomeni T °C DP °C Um. % Pres. hPa Vis. km Vento km/h
Oggi h: 02:55 poco_nuvoloso Poco Nuvoloso 12 9 81 1016 10 O/NO 14.8
Oggi h: 01:55 poco_nuvoloso Poco Nuvoloso 12 9 81 1017 10 O/NO 14.8
Oggi h: 00:55 poco_nuvoloso Poco Nuvoloso 12 -30 3 1017 10 O/NO 16.7
Ieri h: 23:55 poco_nuvoloso Poco Nuvoloso 13 10 81 1017 10 O/NO 16.7
Ieri h: 22:55 poco_nuvoloso Poco Nuvoloso 13 10 81 1017 10 O/NO 13
Ieri h: 21:55 poco_nuvoloso Poco Nuvoloso 13 11 87 1017 10 O/NO 16.7
Ieri h: 20:55 nuvoloso Nuvoloso 13 12 93 1016 10 NO 11.1
Ieri h: 19:55 nuvoloso Nuvoloso 14 12 87 1016 10 N/NO 13
Ieri h: 18:55 nuvoloso Nuvoloso 15 13 87 1016 10 N 9.3
Ieri h: 17:55 molto_nuvoloso Molto Nuvoloso 15 12 82 1016 10 NE 22.2
Ieri h: 16:55 molto_nuvoloso Molto Nuvoloso 15 13 87 1015 10 E/NE 22.2
Ieri h: 15:55 molto_nuvoloso Molto Nuvoloso 15 13 87 1014 10 E/NE 22.2
Ieri h: 14:55 nuvoloso Nuvoloso 16 13 82 1014 10 E/NE 20.3
Ieri h: 13:55 poco_nuvoloso Poco Nuvoloso 17 11 67 1015 10 S/SO 18.5
Ieri h: 12:55 poco_nuvoloso Poco Nuvoloso 17 9 59 1016 10 E 18.5
Ieri h: 11:55 poco_nuvoloso Poco Nuvoloso 17 10 63 1016 10 E 13
Ieri h: 10:55 sereno Sereno 16 9 63 1015 10 NE 7.4
Ieri h: 09:55 sereno Sereno 14 8 67 1014 10 N 3.7
Ieri h: 06:55 sereno Sereno 12 6 66 1014 10 NO 13
Ieri h: 05:55 sereno Sereno 13 7 66 1014 10 NO 14.8
Ieri h: 04:55 sereno Sereno 13 6 62 1014 10 NO 9.3
Ieri h: 03:55 sereno Sereno 13 6 62 1015 10 N/NO 9.3